sensor_id;sensor_type;location;lat;lon;timestamp;temperature;humidity
65598;SHT31;52267;51.984;20.956;2024-01-07T00:02:08;-3.22;77.97
65598;SHT31;52267;51.984;20.956;2024-01-07T00:04:35;-3.22;77.91
65598;SHT31;52267;51.984;20.956;2024-01-07T00:07:04;-3.22;77.97
65598;SHT31;52267;51.984;20.956;2024-01-07T00:09:31;-3.22;77.99
65598;SHT31;52267;51.984;20.956;2024-01-07T00:11:58;-3.23;78.00
65598;SHT31;52267;51.984;20.956;2024-01-07T00:14:26;-3.25;78.02
65598;SHT31;52267;51.984;20.956;2024-01-07T00:16:53;-3.28;78.02
65598;SHT31;52267;51.984;20.956;2024-01-07T00:19:20;-3.33;77.96
65598;SHT31;52267;51.984;20.956;2024-01-07T00:21:47;-3.38;78.07
65598;SHT31;52267;51.984;20.956;2024-01-07T00:24:14;-3.39;78.13
65598;SHT31;52267;51.984;20.956;2024-01-07T00:26:41;-3.40;78.14
65598;SHT31;52267;51.984;20.956;2024-01-07T00:29:08;-3.42;78.08
65598;SHT31;52267;51.984;20.956;2024-01-07T00:31:35;-3.45;78.20
65598;SHT31;52267;51.984;20.956;2024-01-07T00:34:02;-3.45;78.22
65598;SHT31;52267;51.984;20.956;2024-01-07T00:36:29;-3.46;78.15
65598;SHT31;52267;51.984;20.956;2024-01-07T00:38:56;-3.47;78.20
65598;SHT31;52267;51.984;20.956;2024-01-07T00:41:23;-3.51;78.21
65598;SHT31;52267;51.984;20.956;2024-01-07T00:43:51;-3.52;78.20
65598;SHT31;52267;51.984;20.956;2024-01-07T00:46:19;-3.54;78.22
65598;SHT31;52267;51.984;20.956;2024-01-07T00:48:46;-3.57;78.20
65598;SHT31;52267;51.984;20.956;2024-01-07T00:51:13;-3.59;78.18
65598;SHT31;52267;51.984;20.956;2024-01-07T00:53:40;-3.61;78.21
65598;SHT31;52267;51.984;20.956;2024-01-07T00:56:07;-3.64;78.24
65598;SHT31;52267;51.984;20.956;2024-01-07T00:58:35;-3.66;78.35
65598;SHT31;52267;51.984;20.956;2024-01-07T01:01:03;-3.66;78.37
65598;SHT31;52267;51.984;20.956;2024-01-07T01:03:30;-3.65;78.40
65598;SHT31;52267;51.984;20.956;2024-01-07T01:05:58;-3.67;78.38
65598;SHT31;52267;51.984;20.956;2024-01-07T01:08:25;-3.66;78.39
65598;SHT31;52267;51.984;20.956;2024-01-07T01:10:52;-3.68;78.31
65598;SHT31;52267;51.984;20.956;2024-01-07T01:13:19;-3.69;78.39
65598;SHT31;52267;51.984;20.956;2024-01-07T01:15:46;-3.71;78.43
65598;SHT31;52267;51.984;20.956;2024-01-07T01:18:13;-3.73;78.43
65598;SHT31;52267;51.984;20.956;2024-01-07T01:20:40;-3.75;78.42
65598;SHT31;52267;51.984;20.956;2024-01-07T01:23:08;-3.76;78.41
65598;SHT31;52267;51.984;20.956;2024-01-07T01:25:35;-3.76;78.41
65598;SHT31;52267;51.984;20.956;2024-01-07T01:28:02;-3.77;78.40
65598;SHT31;52267;51.984;20.956;2024-01-07T01:30:29;-3.79;78.45
65598;SHT31;52267;51.984;20.956;2024-01-07T01:32:58;-3.81;78.52
65598;SHT31;52267;51.984;20.956;2024-01-07T01:35:25;-3.83;78.52
65598;SHT31;52267;51.984;20.956;2024-01-07T01:37:52;-3.83;78.62
65598;SHT31;52267;51.984;20.956;2024-01-07T01:40:21;-3.84;78.66
65598;SHT31;52267;51.984;20.956;2024-01-07T01:42:48;-3.84;78.61
65598;SHT31;52267;51.984;20.956;2024-01-07T01:45:15;-3.86;78.60
65598;SHT31;52267;51.984;20.956;2024-01-07T01:47:42;-3.89;78.60
65598;SHT31;52267;51.984;20.956;2024-01-07T01:50:10;-3.89;78.60
65598;SHT31;52267;51.984;20.956;2024-01-07T01:52:38;-3.90;78.68
65598;SHT31;52267;51.984;20.956;2024-01-07T01:55:06;-3.91;78.63
65598;SHT31;52267;51.984;20.956;2024-01-07T01:57:33;-3.91;78.66
65598;SHT31;52267;51.984;20.956;2024-01-07T02:00:03;-3.93;78.67
65598;SHT31;52267;51.984;20.956;2024-01-07T02:02:31;-3.95;78.74
65598;SHT31;52267;51.984;20.956;2024-01-07T02:05:01;-3.97;78.80
65598;SHT31;52267;51.984;20.956;2024-01-07T02:07:30;-3.98;78.80
65598;SHT31;52267;51.984;20.956;2024-01-07T02:09:57;-4.02;78.80
65598;SHT31;52267;51.984;20.956;2024-01-07T02:12:26;-4.03;78.81
65598;SHT31;52267;51.984;20.956;2024-01-07T02:14:53;-4.02;78.89
65598;SHT31;52267;51.984;20.956;2024-01-07T02:17:20;-4.03;78.82
65598;SHT31;52267;51.984;20.956;2024-01-07T02:19:48;-4.10;78.90
65598;SHT31;52267;51.984;20.956;2024-01-07T02:22:17;-4.09;79.00
65598;SHT31;52267;51.984;20.956;2024-01-07T02:24:46;-4.09;78.97
65598;SHT31;52267;51.984;20.956;2024-01-07T02:27:16;-4.13;78.81
65598;SHT31;52267;51.984;20.956;2024-01-07T02:29:45;-4.17;78.91
65598;SHT31;52267;51.984;20.956;2024-01-07T02:32:14;-4.17;79.00
65598;SHT31;52267;51.984;20.956;2024-01-07T02:34:41;-4.17;79.00
65598;SHT31;52267;51.984;20.956;2024-01-07T02:37:08;-4.19;79.03
65598;SHT31;52267;51.984;20.956;2024-01-07T02:39:35;-4.22;78.94
65598;SHT31;52267;51.984;20.956;2024-01-07T02:42:02;-4.22;79.06
65598;SHT31;52267;51.984;20.956;2024-01-07T02:44:30;-4.24;79.04
65598;SHT31;52267;51.984;20.956;2024-01-07T02:46:57;-4.25;79.04
65598;SHT31;52267;51.984;20.956;2024-01-07T02:49:24;-4.25;79.08
65598;SHT31;52267;51.984;20.956;2024-01-07T02:51:51;-4.26;79.03
65598;SHT31;52267;51.984;20.956;2024-01-07T02:54:18;-4.27;79.09
65598;SHT31;52267;51.984;20.956;2024-01-07T02:56:45;-4.33;79.04
65598;SHT31;52267;51.984;20.956;2024-01-07T02:59:12;-4.37;78.86
65598;SHT31;52267;51.984;20.956;2024-01-07T03:01:39;-4.39;79.00
65598;SHT31;52267;51.984;20.956;2024-01-07T03:04:10;-4.43;79.18
65598;SHT31;52267;51.984;20.956;2024-01-07T03:06:40;-4.46;79.15
65598;SHT31;52267;51.984;20.956;2024-01-07T03:09:07;-4.48;79.20
65598;SHT31;52267;51.984;20.956;2024-01-07T03:11:40;-4.48;79.23
65598;SHT31;52267;51.984;20.956;2024-01-07T03:14:20;-4.51;79.30
65598;SHT31;52267;51.984;20.956;2024-01-07T03:16:48;-4.51;79.30
65598;SHT31;52267;51.984;20.956;2024-01-07T03:19:15;-4.52;79.30
65598;SHT31;52267;51.984;20.956;2024-01-07T03:21:42;-4.50;79.28
65598;SHT31;52267;51.984;20.956;2024-01-07T03:24:10;-4.54;79.29
65598;SHT31;52267;51.984;20.956;2024-01-07T03:26:37;-4.55;79.30
65598;SHT31;52267;51.984;20.956;2024-01-07T03:29:04;-4.57;79.27
65598;SHT31;52267;51.984;20.956;2024-01-07T03:31:31;-4.57;79.27
65598;SHT31;52267;51.984;20.956;2024-01-07T03:33:58;-4.61;79.30
65598;SHT31;52267;51.984;20.956;2024-01-07T03:36:25;-4.63;79.29
65598;SHT31;52267;51.984;20.956;2024-01-07T03:38:52;-4.64;79.27
65598;SHT31;52267;51.984;20.956;2024-01-07T03:41:23;-4.66;79.25
65598;SHT31;52267;51.984;20.956;2024-01-07T03:43:50;-4.64;79.29
65598;SHT31;52267;51.984;20.956;2024-01-07T03:46:17;-4.66;79.30
65598;SHT31;52267;51.984;20.956;2024-01-07T03:48:44;-4.68;79.19
65598;SHT31;52267;51.984;20.956;2024-01-07T03:51:11;-4.73;79.21
65598;SHT31;52267;51.984;20.956;2024-01-07T03:53:38;-4.73;79.25
65598;SHT31;52267;51.984;20.956;2024-01-07T03:56:05;-4.73;79.17
65598;SHT31;52267;51.984;20.956;2024-01-07T03:58:32;-4.70;79.13
65598;SHT31;52267;51.984;20.956;2024-01-07T04:01:01;-4.71;79.11
65598;SHT31;52267;51.984;20.956;2024-01-07T04:03:28;-4.74;79.10
65598;SHT31;52267;51.984;20.956;2024-01-07T04:05:55;-4.76;79.06
65598;SHT31;52267;51.984;20.956;2024-01-07T04:08:22;-4.81;78.99
65598;SHT31;52267;51.984;20.956;2024-01-07T04:10:49;-4.84;79.07
65598;SHT31;52267;51.984;20.956;2024-01-07T04:13:16;-4.85;79.02
65598;SHT31;52267;51.984;20.956;2024-01-07T04:15:43;-4.82;79.11
65598;SHT31;52267;51.984;20.956;2024-01-07T04:18:10;-4.81;79.12
65598;SHT31;52267;51.984;20.956;2024-01-07T04:20:38;-4.82;79.22
65598;SHT31;52267;51.984;20.956;2024-01-07T04:23:05;-4.82;79.36
65598;SHT31;52267;51.984;20.956;2024-01-07T04:25:32;-4.81;79.43
65598;SHT31;52267;51.984;20.956;2024-01-07T04:27:59;-4.80;79.57
65598;SHT31;52267;51.984;20.956;2024-01-07T04:30:26;-4.81;79.62
65598;SHT31;52267;51.984;20.956;2024-01-07T04:32:53;-4.83;79.72
65598;SHT31;52267;51.984;20.956;2024-01-07T04:35:20;-4.85;79.81
65598;SHT31;52267;51.984;20.956;2024-01-07T04:37:47;-4.88;79.87
65598;SHT31;52267;51.984;20.956;2024-01-07T04:40:14;-4.90;79.90
65598;SHT31;52267;51.984;20.956;2024-01-07T04:42:41;-4.93;79.91
65598;SHT31;52267;51.984;20.956;2024-01-07T04:45:09;-4.98;79.97
65598;SHT31;52267;51.984;20.956;2024-01-07T04:47:36;-5.00;80.04
65598;SHT31;52267;51.984;20.956;2024-01-07T04:50:03;-5.03;80.09
65598;SHT31;52267;51.984;20.956;2024-01-07T04:52:31;-5.05;80.10
65598;SHT31;52267;51.984;20.956;2024-01-07T04:54:58;-5.07;80.10
65598;SHT31;52267;51.984;20.956;2024-01-07T04:57:25;-5.10;80.13
65598;SHT31;52267;51.984;20.956;2024-01-07T04:59:53;-5.12;80.20
65598;SHT31;52267;51.984;20.956;2024-01-07T05:02:20;-5.15;80.20
65598;SHT31;52267;51.984;20.956;2024-01-07T05:04:47;-5.17;80.20
65598;SHT31;52267;51.984;20.956;2024-01-07T05:07:14;-5.20;80.20
65598;SHT31;52267;51.984;20.956;2024-01-07T05:09:41;-5.22;80.23
65598;SHT31;52267;51.984;20.956;2024-01-07T05:12:08;-5.25;80.22
65598;SHT31;52267;51.984;20.956;2024-01-07T05:14:35;-5.27;80.27
65598;SHT31;52267;51.984;20.956;2024-01-07T05:17:04;-5.30;80.26
65598;SHT31;52267;51.984;20.956;2024-01-07T05:19:31;-5.31;80.32
65598;SHT31;52267;51.984;20.956;2024-01-07T05:21:58;-5.30;80.40
65598;SHT31;52267;51.984;20.956;2024-01-07T05:24:25;-5.30;80.38
65598;SHT31;52267;51.984;20.956;2024-01-07T05:26:52;-5.32;80.33
65598;SHT31;52267;51.984;20.956;2024-01-07T05:29:19;-5.33;80.38
65598;SHT31;52267;51.984;20.956;2024-01-07T05:31:46;-5.35;80.39
65598;SHT31;52267;51.984;20.956;2024-01-07T05:34:13;-5.36;80.43
65598;SHT31;52267;51.984;20.956;2024-01-07T05:36:40;-5.38;80.48
65598;SHT31;52267;51.984;20.956;2024-01-07T05:39:07;-5.39;80.49
65598;SHT31;52267;51.984;20.956;2024-01-07T05:41:36;-5.41;80.54
65598;SHT31;52267;51.984;20.956;2024-01-07T05:44:06;-5.42;80.58
65598;SHT31;52267;51.984;20.956;2024-01-07T05:46:35;-5.39;80.60
65598;SHT31;52267;51.984;20.956;2024-01-07T05:49:06;-5.37;80.60
65598;SHT31;52267;51.984;20.956;2024-01-07T05:51:33;-5.37;80.66
65598;SHT31;52267;51.984;20.956;2024-01-07T05:54:00;-5.37;80.64
65598;SHT31;52267;51.984;20.956;2024-01-07T05:56:27;-5.39;80.66
65598;SHT31;52267;51.984;20.956;2024-01-07T05:58:54;-5.42;80.74
65598;SHT31;52267;51.984;20.956;2024-01-07T06:01:21;-5.44;80.79
65598;SHT31;52267;51.984;20.956;2024-01-07T06:03:48;-5.45;80.80
65598;SHT31;52267;51.984;20.956;2024-01-07T06:06:15;-5.46;80.80
65598;SHT31;52267;51.984;20.956;2024-01-07T06:08:43;-5.47;80.80
65598;SHT31;52267;51.984;20.956;2024-01-07T06:11:10;-5.47;80.80
65598;SHT31;52267;51.984;20.956;2024-01-07T06:13:45;-5.47;80.80
65598;SHT31;52267;51.984;20.956;2024-01-07T06:16:12;-5.48;80.73
65598;SHT31;52267;51.984;20.956;2024-01-07T06:18:39;-5.48;80.72
65598;SHT31;52267;51.984;20.956;2024-01-07T06:21:06;-5.50;80.77
65598;SHT31;52267;51.984;20.956;2024-01-07T06:23:33;-5.51;80.79
65598;SHT31;52267;51.984;20.956;2024-01-07T06:26:04;-5.52;80.82
65598;SHT31;52267;51.984;20.956;2024-01-07T06:28:34;-5.52;80.88
65598;SHT31;52267;51.984;20.956;2024-01-07T06:31:04;-5.52;80.89
65598;SHT31;52267;51.984;20.956;2024-01-07T06:33:31;-5.53;80.90
65598;SHT31;52267;51.984;20.956;2024-01-07T06:35:58;-5.49;80.90
65598;SHT31;52267;51.984;20.956;2024-01-07T06:38:27;-5.50;80.90
65598;SHT31;52267;51.984;20.956;2024-01-07T06:40:54;-5.49;80.90
65598;SHT31;52267;51.984;20.956;2024-01-07T06:43:21;-5.47;80.90
65598;SHT31;52267;51.984;20.956;2024-01-07T06:45:48;-5.46;80.90
65598;SHT31;52267;51.984;20.956;2024-01-07T06:48:15;-5.44;80.92
65598;SHT31;52267;51.984;20.956;2024-01-07T06:50:42;-5.42;80.90
65598;SHT31;52267;51.984;20.956;2024-01-07T06:53:10;-5.42;80.90
65598;SHT31;52267;51.984;20.956;2024-01-07T06:55:37;-5.40;80.90
65598;SHT31;52267;51.984;20.956;2024-01-07T06:58:04;-5.39;80.90
65598;SHT31;52267;51.984;20.956;2024-01-07T07:00:31;-5.39;80.89
65598;SHT31;52267;51.984;20.956;2024-01-07T07:02:58;-5.38;80.88
65598;SHT31;52267;51.984;20.956;2024-01-07T07:05:25;-5.36;80.90
65598;SHT31;52267;51.984;20.956;2024-01-07T07:07:52;-5.36;80.89
65598;SHT31;52267;51.984;20.956;2024-01-07T07:10:19;-5.38;80.88
65598;SHT31;52267;51.984;20.956;2024-01-07T07:12:46;-5.37;80.87
65598;SHT31;52267;51.984;20.956;2024-01-07T07:15:13;-5.35;80.84
65598;SHT31;52267;51.984;20.956;2024-01-07T07:17:40;-5.34;80.80
65598;SHT31;52267;51.984;20.956;2024-01-07T07:20:07;-5.32;80.81
65598;SHT31;52267;51.984;20.956;2024-01-07T07:22:35;-5.33;80.80
65598;SHT31;52267;51.984;20.956;2024-01-07T07:25:02;-5.32;80.72
65598;SHT31;52267;51.984;20.956;2024-01-07T07:27:29;-5.31;80.71
65598;SHT31;52267;51.984;20.956;2024-01-07T07:29:56;-5.29;80.72
65598;SHT31;52267;51.984;20.956;2024-01-07T07:32:23;-5.26;80.70
65598;SHT31;52267;51.984;20.956;2024-01-07T07:34:50;-5.24;80.66
65598;SHT31;52267;51.984;20.956;2024-01-07T07:37:17;-5.21;80.61
65598;SHT31;52267;51.984;20.956;2024-01-07T07:39:44;-5.20;80.51
65598;SHT31;52267;51.984;20.956;2024-01-07T07:42:11;-5.15;80.50
65598;SHT31;52267;51.984;20.956;2024-01-07T07:44:38;-5.11;80.48
65598;SHT31;52267;51.984;20.956;2024-01-07T07:47:05;-5.07;80.47
65598;SHT31;52267;51.984;20.956;2024-01-07T07:49:34;-5.01;80.39
65598;SHT31;52267;51.984;20.956;2024-01-07T07:52:02;-4.96;80.38
65598;SHT31;52267;51.984;20.956;2024-01-07T07:54:29;-4.89;80.29
65598;SHT31;52267;51.984;20.956;2024-01-07T07:56:56;-4.80;80.24
65598;SHT31;52267;51.984;20.956;2024-01-07T07:59:23;-4.72;80.16
65598;SHT31;52267;51.984;20.956;2024-01-07T08:01:50;-4.67;80.03
65598;SHT31;52267;51.984;20.956;2024-01-07T08:04:17;-4.61;79.97
65598;SHT31;52267;51.984;20.956;2024-01-07T08:06:44;-4.53;79.82
65598;SHT31;52267;51.984;20.956;2024-01-07T08:09:11;-4.42;79.69
65598;SHT31;52267;51.984;20.956;2024-01-07T08:11:38;-4.31;79.62
65598;SHT31;52267;51.984;20.956;2024-01-07T08:14:05;-4.24;79.52
65598;SHT31;52267;51.984;20.956;2024-01-07T08:16:33;-4.21;79.33
65598;SHT31;52267;51.984;20.956;2024-01-07T08:19:00;-4.16;79.36
65598;SHT31;52267;51.984;20.956;2024-01-07T08:21:27;-4.14;79.30
65598;SHT31;52267;51.984;20.956;2024-01-07T08:23:54;-4.11;79.27
65598;SHT31;52267;51.984;20.956;2024-01-07T08:26:21;-4.15;78.90
65598;SHT31;52267;51.984;20.956;2024-01-07T08:28:49;-4.13;78.94
65598;SHT31;52267;51.984;20.956;2024-01-07T08:31:16;-4.10;78.90
65598;SHT31;52267;51.984;20.956;2024-01-07T08:33:43;-4.09;78.76
65598;SHT31;52267;51.984;20.956;2024-01-07T08:36:10;-4.14;78.49
65598;SHT31;52267;51.984;20.956;2024-01-07T08:38:37;-4.26;78.24
65598;SHT31;52267;51.984;20.956;2024-01-07T08:41:05;-4.26;78.30
65598;SHT31;52267;51.984;20.956;2024-01-07T08:43:32;-4.30;78.09
65598;SHT31;52267;51.984;20.956;2024-01-07T08:45:59;-4.33;78.04
65598;SHT31;52267;51.984;20.956;2024-01-07T08:48:26;-4.48;77.32
65598;SHT31;52267;51.984;20.956;2024-01-07T08:50:53;-4.46;77.67
65598;SHT31;52267;51.984;20.956;2024-01-07T08:53:20;-4.42;77.77
65598;SHT31;52267;51.984;20.956;2024-01-07T08:55:48;-4.41;77.69
65598;SHT31;52267;51.984;20.956;2024-01-07T08:58:15;-4.37;77.59
65598;SHT31;52267;51.984;20.956;2024-01-07T09:00:43;-4.28;77.74
65598;SHT31;52267;51.984;20.956;2024-01-07T09:03:10;-4.23;77.74
65598;SHT31;52267;51.984;20.956;2024-01-07T09:05:38;-4.20;77.63
65598;SHT31;52267;51.984;20.956;2024-01-07T09:08:05;-4.18;77.17
65598;SHT31;52267;51.984;20.956;2024-01-07T09:10:33;-4.14;77.24
65598;SHT31;52267;51.984;20.956;2024-01-07T09:13:00;-4.11;76.89
65598;SHT31;52267;51.984;20.956;2024-01-07T09:15:29;-4.17;76.25
65598;SHT31;52267;51.984;20.956;2024-01-07T09:17:56;-4.22;76.60
65598;SHT31;52267;51.984;20.956;2024-01-07T09:20:23;-4.18;76.71
65598;SHT31;52267;51.984;20.956;2024-01-07T09:22:51;-4.14;77.07
65598;SHT31;52267;51.984;20.956;2024-01-07T09:25:18;-4.11;76.96
65598;SHT31;52267;51.984;20.956;2024-01-07T09:27:45;-4.11;76.77
65598;SHT31;52267;51.984;20.956;2024-01-07T09:30:12;-4.13;76.79
65598;SHT31;52267;51.984;20.956;2024-01-07T09:32:41;-4.22;75.95
65598;SHT31;52267;51.984;20.956;2024-01-07T09:35:08;-4.26;76.31
65598;SHT31;52267;51.984;20.956;2024-01-07T09:37:36;-4.32;75.61
65598;SHT31;52267;51.984;20.956;2024-01-07T09:40:03;-4.42;75.68
65598;SHT31;52267;51.984;20.956;2024-01-07T09:42:32;-4.34;76.38
65598;SHT31;52267;51.984;20.956;2024-01-07T09:45:01;-4.28;76.33
65598;SHT31;52267;51.984;20.956;2024-01-07T09:47:32;-4.24;76.41
65598;SHT31;52267;51.984;20.956;2024-01-07T09:50:00;-4.17;76.40
65598;SHT31;52267;51.984;20.956;2024-01-07T09:52:27;-4.11;76.28
65598;SHT31;52267;51.984;20.956;2024-01-07T09:54:57;-4.03;76.17
65598;SHT31;52267;51.984;20.956;2024-01-07T09:57:30;-4.08;75.08
65598;SHT31;52267;51.984;20.956;2024-01-07T09:59:57;-4.06;75.87
65598;SHT31;52267;51.984;20.956;2024-01-07T10:02:25;-4.01;76.13
65598;SHT31;52267;51.984;20.956;2024-01-07T10:04:52;-3.97;76.04
65598;SHT31;52267;51.984;20.956;2024-01-07T10:07:19;-3.93;76.05
65598;SHT31;52267;51.984;20.956;2024-01-07T10:09:46;-3.88;76.08
65598;SHT31;52267;51.984;20.956;2024-01-07T10:12:13;-3.86;75.77
65598;SHT31;52267;51.984;20.956;2024-01-07T10:14:40;-3.83;75.91
65598;SHT31;52267;51.984;20.956;2024-01-07T10:17:14;-3.82;76.02
65598;SHT31;52267;51.984;20.956;2024-01-07T10:19:45;-3.80;76.02
65598;SHT31;52267;51.984;20.956;2024-01-07T10:22:13;-3.79;76.00
65598;SHT31;52267;51.984;20.956;2024-01-07T10:24:41;-3.74;76.18
65598;SHT31;52267;51.984;20.956;2024-01-07T10:27:09;-3.69;76.03
65598;SHT31;52267;51.984;20.956;2024-01-07T10:29:37;-3.62;75.89
65598;SHT31;52267;51.984;20.956;2024-01-07T10:32:04;-3.59;75.97
65598;SHT31;52267;51.984;20.956;2024-01-07T10:34:33;-3.60;76.06
65598;SHT31;52267;51.984;20.956;2024-01-07T10:37:02;-3.59;76.12
65598;SHT31;52267;51.984;20.956;2024-01-07T10:39:33;-3.57;75.94
65598;SHT31;52267;51.984;20.956;2024-01-07T10:42:00;-3.59;75.58
65598;SHT31;52267;51.984;20.956;2024-01-07T10:44:29;-3.73;74.44
65598;SHT31;52267;51.984;20.956;2024-01-07T10:46:58;-3.68;75.38
65598;SHT31;52267;51.984;20.956;2024-01-07T10:49:27;-3.62;75.54
65598;SHT31;52267;51.984;20.956;2024-01-07T10:54:33;-3.60;75.43
65598;SHT31;52267;51.984;20.956;2024-01-07T11:00:03;-3.55;75.34
65598;SHT31;52267;51.984;20.956;2024-01-07T11:02:46;-3.61;74.45
65598;SHT31;52267;51.984;20.956;2024-01-07T11:08:18;-3.71;75.01
65598;SHT31;52267;51.984;20.956;2024-01-07T11:11:01;-3.71;75.55
65598;SHT31;52267;51.984;20.956;2024-01-07T11:13:37;-3.72;75.58
65598;SHT31;52267;51.984;20.956;2024-01-07T11:16:05;-3.74;75.13
65598;SHT31;52267;51.984;20.956;2024-01-07T11:18:45;-3.77;74.89
65598;SHT31;52267;51.984;20.956;2024-01-07T11:21:22;-3.88;74.45
65598;SHT31;52267;51.984;20.956;2024-01-07T11:23:51;-3.88;74.40
65598;SHT31;52267;51.984;20.956;2024-01-07T11:26:24;-3.80;75.04
65598;SHT31;52267;51.984;20.956;2024-01-07T11:28:51;-3.89;73.99
65598;SHT31;52267;51.984;20.956;2024-01-07T11:31:20;-3.94;74.07
65598;SHT31;52267;51.984;20.956;2024-01-07T11:37:10;-3.78;74.97
65598;SHT31;52267;51.984;20.956;2024-01-07T11:39:42;-3.78;75.11
65598;SHT31;52267;51.984;20.956;2024-01-07T11:42:11;-3.78;75.26
65598;SHT31;52267;51.984;20.956;2024-01-07T11:44:45;-3.79;75.25
65598;SHT31;52267;51.984;20.956;2024-01-07T11:47:20;-3.79;75.19
65598;SHT31;52267;51.984;20.956;2024-01-07T11:49:49;-3.76;75.49
65598;SHT31;52267;51.984;20.956;2024-01-07T11:52:16;-3.77;75.46
65598;SHT31;52267;51.984;20.956;2024-01-07T11:54:44;-3.80;75.45
65598;SHT31;52267;51.984;20.956;2024-01-07T11:57:11;-3.84;75.30
65598;SHT31;52267;51.984;20.956;2024-01-07T11:59:38;-3.83;75.16
65598;SHT31;52267;51.984;20.956;2024-01-07T12:02:05;-3.82;75.19
65598;SHT31;52267;51.984;20.956;2024-01-07T12:04:33;-3.83;75.43
65598;SHT31;52267;51.984;20.956;2024-01-07T12:07:01;-3.83;75.34
65598;SHT31;52267;51.984;20.956;2024-01-07T12:09:30;-3.85;75.38
65598;SHT31;52267;51.984;20.956;2024-01-07T12:11:57;-3.89;75.34
65598;SHT31;52267;51.984;20.956;2024-01-07T12:14:24;-3.91;75.43
65598;SHT31;52267;51.984;20.956;2024-01-07T12:16:52;-3.92;75.15
65598;SHT31;52267;51.984;20.956;2024-01-07T12:19:19;-3.92;75.01
65598;SHT31;52267;51.984;20.956;2024-01-07T12:21:48;-3.92;75.17
65598;SHT31;52267;51.984;20.956;2024-01-07T12:24:18;-3.90;75.19
65598;SHT31;52267;51.984;20.956;2024-01-07T12:26:45;-3.89;75.04
65598;SHT31;52267;51.984;20.956;2024-01-07T12:29:14;-3.84;75.17
65598;SHT31;52267;51.984;20.956;2024-01-07T12:31:41;-3.85;75.19
65598;SHT31;52267;51.984;20.956;2024-01-07T12:34:10;-3.86;75.23
65598;SHT31;52267;51.984;20.956;2024-01-07T12:36:38;-3.90;75.17
65598;SHT31;52267;51.984;20.956;2024-01-07T12:39:06;-3.94;75.43
65598;SHT31;52267;51.984;20.956;2024-01-07T12:41:33;-4.05;75.36
65598;SHT31;52267;51.984;20.956;2024-01-07T12:44:01;-4.14;75.64
65598;SHT31;52267;51.984;20.956;2024-01-07T12:46:28;-4.15;75.67
65598;SHT31;52267;51.984;20.956;2024-01-07T12:48:55;-4.18;75.70
65598;SHT31;52267;51.984;20.956;2024-01-07T12:51:25;-4.25;75.60
65598;SHT31;52267;51.984;20.956;2024-01-07T12:53:52;-4.27;75.59
65598;SHT31;52267;51.984;20.956;2024-01-07T12:56:19;-4.31;75.50
65598;SHT31;52267;51.984;20.956;2024-01-07T12:58:47;-4.29;75.44
65598;SHT31;52267;51.984;20.956;2024-01-07T13:01:14;-4.28;75.47
65598;SHT31;52267;51.984;20.956;2024-01-07T13:03:41;-4.34;75.13
65598;SHT31;52267;51.984;20.956;2024-01-07T13:06:08;-4.34;75.40
65598;SHT31;52267;51.984;20.956;2024-01-07T13:08:35;-4.44;75.32
65598;SHT31;52267;51.984;20.956;2024-01-07T13:11:02;-4.47;75.54
65598;SHT31;52267;51.984;20.956;2024-01-07T13:13:29;-4.47;75.73
65598;SHT31;52267;51.984;20.956;2024-01-07T13:15:56;-4.50;75.82
65598;SHT31;52267;51.984;20.956;2024-01-07T13:18:27;-4.53;75.66
65598;SHT31;52267;51.984;20.956;2024-01-07T13:20:54;-4.63;75.26
65598;SHT31;52267;51.984;20.956;2024-01-07T13:23:21;-4.71;75.41
65598;SHT31;52267;51.984;20.956;2024-01-07T13:25:48;-4.74;75.64
65598;SHT31;52267;51.984;20.956;2024-01-07T13:28:15;-4.73;75.69
65598;SHT31;52267;51.984;20.956;2024-01-07T13:30:42;-4.74;75.73
65598;SHT31;52267;51.984;20.956;2024-01-07T13:33:10;-4.78;75.73
65598;SHT31;52267;51.984;20.956;2024-01-07T13:35:37;-4.79;75.78
65598;SHT31;52267;51.984;20.956;2024-01-07T13:38:04;-4.83;75.75
65598;SHT31;52267;51.984;20.956;2024-01-07T13:40:31;-4.88;75.63
65598;SHT31;52267;51.984;20.956;2024-01-07T13:42:59;-4.89;75.81
65598;SHT31;52267;51.984;20.956;2024-01-07T13:45:26;-4.94;75.80
65598;SHT31;52267;51.984;20.956;2024-01-07T13:47:53;-4.99;75.99
65598;SHT31;52267;51.984;20.956;2024-01-07T13:50:20;-5.05;75.89
65598;SHT31;52267;51.984;20.956;2024-01-07T13:52:47;-5.05;75.90
65598;SHT31;52267;51.984;20.956;2024-01-07T13:55:14;-5.07;75.93
65598;SHT31;52267;51.984;20.956;2024-01-07T13:57:41;-5.07;75.99
65598;SHT31;52267;51.984;20.956;2024-01-07T14:00:08;-5.07;76.00
65598;SHT31;52267;51.984;20.956;2024-01-07T14:02:37;-5.11;75.91
65598;SHT31;52267;51.984;20.956;2024-01-07T14:05:04;-5.13;75.90
65598;SHT31;52267;51.984;20.956;2024-01-07T14:07:33;-5.16;75.87
65598;SHT31;52267;51.984;20.956;2024-01-07T14:10:00;-5.17;76.00
65598;SHT31;52267;51.984;20.956;2024-01-07T14:12:29;-5.19;75.92
65598;SHT31;52267;51.984;20.956;2024-01-07T14:14:57;-5.23;75.85
65598;SHT31;52267;51.984;20.956;2024-01-07T14:17:27;-5.23;76.02
65598;SHT31;52267;51.984;20.956;2024-01-07T14:19:54;-5.27;76.01
65598;SHT31;52267;51.984;20.956;2024-01-07T14:22:21;-5.29;76.03
65598;SHT31;52267;51.984;20.956;2024-01-07T14:24:49;-5.34;76.24
65598;SHT31;52267;51.984;20.956;2024-01-07T14:27:16;-5.41;76.24
65598;SHT31;52267;51.984;20.956;2024-01-07T14:29:44;-5.45;76.10
65598;SHT31;52267;51.984;20.956;2024-01-07T14:32:12;-5.46;76.12
65598;SHT31;52267;51.984;20.956;2024-01-07T14:34:39;-5.49;76.15
65598;SHT31;52267;51.984;20.956;2024-01-07T14:37:08;-5.54;76.06
65598;SHT31;52267;51.984;20.956;2024-01-07T14:39:38;-5.61;76.14
65598;SHT31;52267;51.984;20.956;2024-01-07T14:42:05;-5.65;76.10
65598;SHT31;52267;51.984;20.956;2024-01-07T14:44:32;-5.66;76.19
65598;SHT31;52267;51.984;20.956;2024-01-07T14:46:59;-5.68;76.26
65598;SHT31;52267;51.984;20.956;2024-01-07T14:49:26;-5.68;76.27
65598;SHT31;52267;51.984;20.956;2024-01-07T14:51:54;-5.73;76.39
65598;SHT31;52267;51.984;20.956;2024-01-07T14:54:21;-5.80;76.33
65598;SHT31;52267;51.984;20.956;2024-01-07T14:56:49;-5.83;76.27
65598;SHT31;52267;51.984;20.956;2024-01-07T14:59:16;-5.86;76.27
65598;SHT31;52267;51.984;20.956;2024-01-07T15:01:43;-5.88;76.36
65598;SHT31;52267;51.984;20.956;2024-01-07T15:04:10;-5.92;76.37
65598;SHT31;52267;51.984;20.956;2024-01-07T15:06:39;-5.92;76.49
65598;SHT31;52267;51.984;20.956;2024-01-07T15:09:07;-5.91;76.39
65598;SHT31;52267;51.984;20.956;2024-01-07T15:11:35;-5.93;76.43
65598;SHT31;52267;51.984;20.956;2024-01-07T15:14:02;-5.93;76.42
65598;SHT31;52267;51.984;20.956;2024-01-07T15:16:36;-5.95;76.42
65598;SHT31;52267;51.984;20.956;2024-01-07T15:19:03;-6.00;76.45
65598;SHT31;52267;51.984;20.956;2024-01-07T15:21:30;-6.05;76.46
65598;SHT31;52267;51.984;20.956;2024-01-07T15:23:58;-6.07;76.46
65598;SHT31;52267;51.984;20.956;2024-01-07T15:26:25;-6.08;76.40
65598;SHT31;52267;51.984;20.956;2024-01-07T15:28:53;-6.13;76.51
65598;SHT31;52267;51.984;20.956;2024-01-07T15:31:20;-6.16;76.54